Time;durP1;ratioP1;P1;durP2;ratioP2;P2;SDS_P1;SDS_P2;PMS_P1;PMS_P2;Temp;Humidity;BMP_temperature;BMP_pressure;BME280_temperature;BME280_humidity;BME280_pressure;Samples;Min_cycle;Max_cycle;Signal;HPM_P1;HPM_P2
2022/01/12 00:00:39;;;;;;;;;60.00;50.00;;;;;-147.17;100.00;50312.53;5036983;28;51714;-69
2022/01/12 00:03:06;;;;;;;;;54.00;47.00;;;;;-147.17;100.00;50318.41;5024205;28;51355;-68
2022/01/12 00:05:31;;;;;;;;;49.00;44.00;;;;;-147.17;100.00;50332.19;5026433;28;51349;-63
2022/01/12 00:07:56;;;;;;;;;53.25;45.25;;;;;-147.17;100.00;50318.41;5019033;28;51149;-67
2022/01/12 00:10:22;;;;;;;;;58.75;48.50;;;;;-147.17;100.00;50320.38;5023830;28;51883;-67
2022/01/12 00:12:47;;;;;;;;;62.25;46.25;;;;;-147.17;100.00;50322.34;5024791;28;51404;-62
2022/01/12 00:15:16;;;;;;;;;56.75;44.00;;;;;-147.17;100.00;50324.31;5014530;28;51113;-64
2022/01/12 00:17:42;;;;;;;;;55.00;47.50;;;;;-147.17;100.00;50308.59;5017157;28;51255;-65
2022/01/12 00:20:07;;;;;;;;;64.75;49.75;;;;;-147.17;100.00;50340.06;5015472;28;51265;-65
2022/01/12 00:22:33;;;;;;;;;58.50;47.25;;;;;-147.17;100.00;50300.72;5012065;28;51214;-64
2022/01/12 00:35:54;;;;;;;;;60.50;48.25;;;;;-147.17;100.00;50347.94;4998635;28;51167;-70
2022/01/12 00:38:23;;;;;;;;;53.25;43.25;;;;;-147.17;100.00;50314.47;5013353;28;51625;-70
2022/01/12 00:40:50;;;;;;;;;50.00;44.00;;;;;-147.17;100.00;50320.38;5021506;28;53958;-68
2022/01/12 00:43:17;;;;;;;;;63.75;48.00;;;;;-147.17;100.00;50316.44;5023516;28;51208;-69
2022/01/12 00:45:45;;;;;;;;;62.50;48.75;;;;;-147.17;100.00;50340.06;5020971;28;51258;-65
2022/01/12 00:48:13;;;;;;;;;61.75;49.00;;;;;-147.17;100.00;50338.09;5019074;28;51177;-65
2022/01/12 00:50:39;;;;;;;;;58.25;46.25;;;;;-147.17;100.00;50336.13;5028739;28;51251;-64
2022/01/12 00:53:05;;;;;;;;;64.75;47.50;;;;;-147.17;100.00;50334.16;5030779;28;51242;-66
2022/01/12 00:55:31;;;;;;;;;53.50;44.75;;;;;-147.17;100.00;50334.16;5024857;28;51464;-66
2022/01/12 00:57:58;;;;;;;;;49.25;43.50;;;;;-147.17;100.00;50324.31;5021361;28;51199;-65
2022/01/12 01:00:25;;;;;;;;;53.75;44.50;;;;;-147.17;100.00;50316.44;5024709;28;52382;-62
2022/01/12 01:02:51;;;;;;;;;59.50;45.00;;;;;-147.17;100.00;50308.59;5029709;28;51225;-63
2022/01/12 01:05:20;;;;;;;;;58.75;47.25;;;;;-147.17;100.00;50324.31;5022903;28;53920;-66
2022/01/12 01:07:46;;;;;;;;;60.75;48.00;;;;;-147.17;100.00;50326.28;5032723;28;51228;-65
2022/01/12 01:10:16;;;;;;;;;56.75;45.00;;;;;-147.17;100.00;50328.25;5030153;28;51230;-70
2022/01/12 01:12:42;;;;;;;;;50.50;42.00;;;;;-147.17;100.00;50328.25;5023693;28;51211;-61
2022/01/12 01:15:12;;;;;;;;;51.00;44.00;;;;;-147.17;100.00;50344.00;5017488;28;51855;-64
2022/01/12 01:25:47;;;;;;;;;48.00;41.25;;;;;-147.17;100.00;50300.72;5024745;28;51121;-64
2022/01/12 01:28:14;;;;;;;;;45.00;37.50;;;;;-147.17;100.00;50340.06;5037456;28;51128;-65
2022/01/12 01:30:42;;;;;;;;;48.00;41.25;;;;;-147.17;100.00;50332.19;5028643;28;51085;-65
2022/01/12 01:33:09;;;;;;;;;62.25;44.75;;;;;-147.17;100.00;50324.31;5023086;28;51429;-67
2022/01/12 01:35:47;;;;;;;;;62.00;47.25;;;;;-147.17;100.00;50328.25;5023343;28;51110;-70
2022/01/12 01:38:12;;;;;;;;;59.25;48.50;;;;;-147.17;100.00;50330.22;5030363;28;50975;-66
2022/01/12 01:40:42;;;;;;;;;55.00;45.75;;;;;-147.17;100.00;50318.41;5027796;28;51689;-65
2022/01/12 01:43:43;;;;;;;;;51.75;43.75;;;;;-147.17;100.00;50286.94;5024151;28;52494;-64
2022/01/12 01:54:09;;;;;;;;;54.50;44.25;;;;;-147.17;100.00;50330.22;5026742;28;51437;-66
2022/01/12 01:56:34;;;;;;;;;50.75;43.75;;;;;-147.17;100.00;50347.94;5027848;28;52965;-66
2022/01/12 01:59:00;;;;;;;;;51.00;44.25;;;;;-147.17;100.00;50330.22;5032713;28;51338;-66
2022/01/12 02:01:26;;;;;;;;;51.25;43.00;;;;;-147.17;100.00;50302.69;5038452;28;53954;-66
2022/01/12 02:03:54;;;;;;;;;63.50;47.25;;;;;-147.17;100.00;50344.00;5031736;28;51031;-66
2022/01/12 02:06:19;;;;;;;;;61.75;50.50;;;;;-147.17;100.00;50324.31;5032230;28;51385;-65
2022/01/12 02:08:45;;;;;;;;;60.75;45.75;;;;;-147.17;100.00;50320.38;5028024;28;51160;-65
2022/01/12 02:11:10;;;;;;;;;60.50;49.00;;;;;-147.17;100.00;50334.16;5027575;28;52791;-65
2022/01/12 02:13:37;;;;;;;;;55.75;47.50;;;;;-147.17;100.00;50345.97;5036115;28;51039;-64
2022/01/12 02:16:02;;;;;;;;;59.25;48.00;;;;;-147.17;100.00;50322.34;5027885;28;51270;-61
2022/01/12 02:40:31;;;;;;;;;59.75;47.75;;;;;-147.17;100.00;50326.28;5024597;28;51233;-66
2022/01/12 02:53:43;;;;;;;;;52.25;43.25;;;;;-147.17;100.00;50304.66;5024628;28;51118;-61
2022/01/12 02:56:09;;;;;;;;;67.50;50.25;;;;;-147.17;100.00;50338.09;5017243;28;51236;-63
2022/01/12 02:58:35;;;;;;;;;57.00;45.75;;;;;-147.17;100.00;50359.75;5025513;28;51330;-62
2022/01/12 03:03:38;;;;;;;;;48.25;38.75;;;;;-147.17;100.00;50320.38;5023083;28;52824;-66
2022/01/12 03:06:07;;;;;;;;;60.75;49.00;;;;;-147.17;100.00;50336.13;5025014;28;52745;-66
2022/01/12 03:08:37;;;;;;;;;59.00;45.50;;;;;-147.17;100.00;50332.19;5022478;28;51150;-65
2022/01/12 03:11:07;;;;;;;;;50.00;42.50;;;;;-147.17;100.00;50347.94;5028017;28;51260;-66
2022/01/12 03:13:35;;;;;;;;;49.50;39.50;;;;;-147.17;100.00;50316.44;5020294;28;51390;-64
2022/01/12 03:16:02;;;;;;;;;63.25;50.00;;;;;-147.17;100.00;50318.41;5024274;28;51216;-65
2022/01/12 03:18:28;;;;;;;;;57.25;45.00;;;;;-147.17;100.00;50294.81;5025744;28;51175;-65
2022/01/12 03:20:54;;;;;;;;;55.00;45.50;;;;;-147.17;100.00;50326.28;5018053;28;51206;-65
2022/01/12 03:23:19;;;;;;;;;48.50;43.50;;;;;-147.17;100.00;50324.31;5019869;28;51934;-66
2022/01/12 03:25:45;;;;;;;;;48.75;42.00;;;;;-147.17;100.00;50320.38;5026191;28;51154;-65
2022/01/12 03:28:10;;;;;;;;;46.75;42.25;;;;;-147.17;100.00;50324.31;5028395;28;51382;-65
2022/01/12 03:30:47;;;;;;;;;45.25;41.00;;;;;-147.17;100.00;50328.25;5026303;28;51418;-65
2022/01/12 03:33:31;;;;;;;;;58.50;47.25;;;;;-147.17;100.00;50310.56;5017186;28;53104;-63
2022/01/12 03:38:41;;;;;;;;;46.25;39.00;;;;;-147.17;100.00;50330.22;5016259;28;50893;-63
2022/01/12 03:41:06;;;;;;;;;60.50;46.50;;;;;-147.17;100.00;50316.44;5016692;28;50867;-63
2022/01/12 03:43:31;;;;;;;;;60.75;49.50;;;;;-147.17;100.00;50324.31;5023482;28;51855;-66
2022/01/12 03:45:57;;;;;;;;;51.75;39.75;;;;;-147.17;100.00;50288.91;5020813;28;51038;-61
2022/01/12 03:48:22;;;;;;;;;58.00;43.75;;;;;-147.17;100.00;50275.13;5013021;28;51119;-62
2022/01/12 03:50:48;;;;;;;;;61.00;46.75;;;;;-147.17;100.00;50300.72;5016343;28;51189;-62
2022/01/12 03:53:14;;;;;;;;;61.75;47.50;;;;;-147.17;100.00;50332.19;5024041;28;54238;-62
2022/01/12 03:55:41;;;;;;;;;56.75;43.75;;;;;-147.17;100.00;50369.59;5022970;28;51180;-62
2022/01/12 03:58:10;;;;;;;;;55.50;46.00;;;;;-147.17;100.00;50332.19;5012573;28;51015;-62
2022/01/12 04:00:35;;;;;;;;;50.50;43.50;;;;;-147.17;100.00;50332.19;5014766;28;51227;-62
2022/01/12 04:03:03;;;;;;;;;54.25;42.75;;;;;-147.17;100.00;50294.81;5014458;28;52863;-62
2022/01/12 04:10:38;;;;;;;;;59.00;46.25;;;;;-147.17;100.00;50300.72;5016117;28;51432;-61
2022/01/12 04:13:04;;;;;;;;;53.75;42.25;;;;;-147.17;100.00;50281.03;5027061;28;51942;-63
2022/01/12 04:15:30;;;;;;;;;51.25;43.00;;;;;-147.17;100.00;50300.72;5032179;28;51132;-63
2022/01/12 04:17:55;;;;;;;;;55.50;45.50;;;;;-147.17;100.00;50306.63;5034227;28;51330;-63
2022/01/12 04:20:20;;;;;;;;;52.50;42.75;;;;;-147.17;100.00;50304.66;5031001;28;51209;-62
2022/01/12 04:25:29;;;;;;;;;45.00;41.00;;;;;-147.17;100.00;50334.16;5023885;28;50931;-64
2022/01/12 04:27:55;;;;;;;;;48.75;41.00;;;;;-147.17;100.00;50298.75;5020470;28;51287;-63
2022/01/12 04:30:20;;;;;;;;;40.50;38.25;;;;;-147.17;100.00;50308.59;5022375;28;51432;-62
2022/01/12 04:32:46;;;;;;;;;57.50;47.50;;;;;-147.17;100.00;50310.56;5025120;28;51139;-62
2022/01/12 04:35:14;;;;;;;;;52.75;43.25;;;;;-147.17;100.00;50296.78;5016429;28;51208;-62
2022/01/12 04:37:40;;;;;;;;;52.25;43.50;;;;;-147.17;100.00;50304.66;5026778;28;51173;-62
2022/01/12 04:40:06;;;;;;;;;51.50;44.75;;;;;-147.17;100.00;50286.94;5025759;28;51214;-62
2022/01/12 04:42:34;;;;;;;;;57.50;46.50;;;;;-147.17;100.00;50332.19;5015048;28;52416;-61
2022/01/12 04:45:04;;;;;;;;;53.25;43.00;;;;;-147.17;100.00;50284.97;5030769;28;51241;-62
2022/01/12 04:47:57;;;;;;;;;49.50;33.75;;;;;-147.17;100.00;50302.69;5022478;28;51334;-62
2022/01/12 04:50:15;;;;;;;;;51.75;43.75;;;;;-147.17;100.00;50300.72;5015095;28;51312;-61
2022/01/12 04:52:41;;;;;;;;;52.00;44.25;;;;;-147.17;100.00;50312.53;5025756;28;51678;-62
2022/01/12 04:55:08;;;;;;;;;50.25;43.00;;;;;-147.17;100.00;50310.56;5024668;28;51140;-62
2022/01/12 04:57:33;;;;;;;;;51.00;40.50;;;;;-147.17;100.00;50308.59;5023876;28;51217;-62
2022/01/12 05:00:10;;;;;;;;;55.00;45.75;;;;;-147.17;100.00;50284.97;5034597;28;51108;-62
2022/01/12 05:08:19;;;;;;;;;56.25;41.50;;;;;-147.17;100.00;50296.78;5030909;28;51235;-63
2022/01/12 05:13:30;;;;;;;;;50.25;41.75;;;;;-147.17;100.00;50320.38;5028456;28;51015;-62
2022/01/12 05:15:57;;;;;;;;;33.00;28.75;;;;;-147.17;100.00;50308.59;5033902;28;51270;-62
2022/01/12 05:18:23;;;;;;;;;54.00;44.00;;;;;-147.17;100.00;50340.06;5024024;28;51142;-62
2022/01/12 05:20:48;;;;;;;;;47.00;39.75;;;;;-147.17;100.00;50308.59;5035159;28;50979;-61
2022/01/12 05:23:14;;;;;;;;;47.00;39.75;;;;;-147.17;100.00;50334.16;5029907;28;51714;-62
2022/01/12 05:25:40;;;;;;;;;48.25;42.00;;;;;-147.17;100.00;50312.53;5021857;28;50975;-62
2022/01/12 05:28:06;;;;;;;;;50.25;43.25;;;;;-147.17;100.00;50312.53;5029894;28;51170;-63
2022/01/12 05:30:32;;;;;;;;;68.25;54.00;;;;;-147.17;100.00;50316.44;5027911;28;51031;-63
2022/01/12 05:32:58;;;;;;;;;52.50;41.75;;;;;-147.17;100.00;50328.25;5015186;28;52006;-63
2022/01/12 05:35:30;;;;;;;;;47.25;41.50;;;;;-147.17;100.00;50332.19;5018909;28;51850;-63
2022/01/12 05:37:56;;;;;;;;;46.00;40.00;;;;;-147.17;100.00;50308.59;5025542;28;51218;-62
2022/01/12 05:40:22;;;;;;;;;54.50;43.25;;;;;-147.17;100.00;50330.22;5027167;28;50823;-62
2022/01/12 05:42:49;;;;;;;;;55.00;44.00;;;;;-147.17;100.00;50324.31;5016183;28;53816;-62
2022/01/12 05:45:17;;;;;;;;;43.00;41.50;;;;;-147.17;100.00;50373.53;5023335;28;51105;-62
2022/01/12 05:50:08;;;;;;;;;45.75;39.25;;;;;-147.17;100.00;50336.13;5028283;28;51149;-62
2022/01/12 05:52:34;;;;;;;;;53.00;39.75;;;;;-147.17;100.00;50296.78;5026041;28;51720;-63
2022/01/12 05:55:02;;;;;;;;;48.75;42.50;;;;;-147.17;100.00;50320.38;5030959;28;50989;-62
2022/01/12 05:57:29;;;;;;;;;46.25;42.25;;;;;-147.17;100.00;50336.13;5028802;28;51122;-62
2022/01/12 05:59:55;;;;;;;;;53.75;43.50;;;;;-147.17;100.00;50312.53;5023776;28;51054;-62
2022/01/12 06:02:20;;;;;;;;;51.50;42.75;;;;;-147.17;100.00;50308.59;5021824;28;51046;-62
2022/01/12 06:04:46;;;;;;;;;58.75;44.75;;;;;-147.17;100.00;50306.63;5024303;28;51000;-62
2022/01/12 06:07:11;;;;;;;;;56.25;44.50;;;;;-147.17;100.00;50312.53;5024244;28;51266;-63
2022/01/12 06:09:36;;;;;;;;;57.00;47.00;;;;;-147.17;100.00;50320.38;5032401;28;50960;-64
2022/01/12 06:12:02;;;;;;;;;54.25;42.75;;;;;-147.17;100.00;50310.56;5032440;28;52515;-64
2022/01/12 06:14:28;;;;;;;;;51.00;42.75;;;;;-147.17;100.00;50328.25;5013716;28;50991;-63
2022/01/12 06:16:53;;;;;;;;;48.75;40.25;;;;;-147.17;100.00;50357.78;5023008;28;51131;-62
2022/01/12 06:19:18;;;;;;;;;52.75;43.00;;;;;-147.17;100.00;50312.53;5028643;28;51088;-62
2022/01/12 06:21:44;;;;;;;;;38.00;35.00;;;;;-147.17;100.00;50324.31;5021763;28;51050;-62
2022/01/12 06:24:09;;;;;;;;;48.25;42.00;;;;;-147.17;100.00;50338.09;5028340;28;51223;-62
2022/01/12 06:26:36;;;;;;;;;56.50;43.00;;;;;-147.17;100.00;50334.16;5029996;28;51291;-62
2022/01/12 06:31:38;;;;;;;;;46.75;41.50;;;;;-147.17;100.00;50344.00;5025055;28;52788;-63
2022/01/12 06:34:03;;;;;;;;;44.25;39.00;;;;;-147.17;100.00;50324.31;5018516;28;50887;-62
2022/01/12 06:36:29;;;;;;;;;53.75;43.50;;;;;-147.17;100.00;50316.44;5020585;28;51159;-63
2022/01/12 06:38:54;;;;;;;;;42.00;36.25;;;;;-147.17;100.00;50328.25;5026494;28;51189;-63
2022/01/12 06:41:21;;;;;;;;;53.50;43.00;;;;;-147.17;100.00;50296.78;5015980;28;52216;-62
2022/01/12 06:43:47;;;;;;;;;44.75;39.25;;;;;-147.17;100.00;50336.13;5023285;28;51062;-62
2022/01/12 06:46:19;;;;;;;;;49.75;39.75;;;;;-147.17;100.00;50330.22;5014751;28;51078;-63
2022/01/12 06:48:45;;;;;;;;;49.50;42.25;;;;;-147.17;100.00;50344.00;5029907;28;51272;-63
2022/01/12 06:51:11;;;;;;;;;43.25;38.25;;;;;-147.17;100.00;50302.69;5033102;28;51505;-62
2022/01/12 06:53:36;;;;;;;;;45.50;38.00;;;;;-147.17;100.00;50302.69;5031436;28;50886;-62
2022/01/12 06:56:04;;;;;;;;;44.50;37.25;;;;;-147.17;100.00;50314.47;5016034;28;50936;-62
2022/01/12 06:58:29;;;;;;;;;46.75;40.50;;;;;-147.17;100.00;50296.78;5023691;28;51301;-63
2022/01/12 07:00:54;;;;;;;;;45.50;39.25;;;;;-147.17;100.00;50328.25;5017816;28;52172;-63
2022/01/12 07:03:20;;;;;;;;;49.00;41.75;;;;;-147.17;100.00;50328.25;5016408;28;51216;-63
2022/01/12 07:05:46;;;;;;;;;55.75;43.00;;;;;-147.17;100.00;50300.72;5028845;28;50991;-62
2022/01/12 07:08:11;;;;;;;;;50.00;41.50;;;;;-147.17;100.00;50328.25;5033474;28;51979;-63
2022/01/12 07:10:37;;;;;;;;;42.50;36.25;;;;;-147.17;100.00;50338.09;5032912;28;51713;-64
2022/01/12 07:13:02;;;;;;;;;38.50;34.25;;;;;-147.17;100.00;50314.47;5030461;28;51152;-64
2022/01/12 07:15:28;;;;;;;;;41.00;34.75;;;;;-147.17;100.00;50324.31;5020339;28;51396;-63
2022/01/12 07:17:53;;;;;;;;;52.25;41.00;;;;;-147.17;100.00;50340.06;5016488;28;51063;-65
2022/01/12 07:20:18;;;;;;;;;50.50;41.50;;;;;-147.17;100.00;50334.16;5012090;28;51893;-64
2022/01/12 07:22:44;;;;;;;;;59.00;47.00;;;;;-147.17;100.00;50316.44;5013739;28;50972;-64
2022/01/12 07:25:09;;;;;;;;;45.25;40.25;;;;;-147.17;100.00;50328.25;5022501;28;50971;-64
2022/01/12 07:27:35;;;;;;;;;48.00;43.75;;;;;-147.17;100.00;50328.25;5013687;28;51122;-64
2022/01/12 07:30:01;;;;;;;;;56.00;43.75;;;;;-147.17;100.00;50312.53;5017440;28;51298;-64
2022/01/12 07:32:27;;;;;;;;;44.00;39.50;;;;;-147.17;100.00;50312.53;5025964;28;51141;-64
2022/01/12 07:34:53;;;;;;;;;50.75;39.25;;;;;-147.17;100.00;50328.25;5018344;28;51185;-66
2022/01/12 07:37:18;;;;;;;;;50.25;42.75;;;;;-147.17;100.00;50326.28;5027892;28;51197;-63
2022/01/12 07:39:44;;;;;;;;;49.00;43.00;;;;;-147.17;100.00;50308.59;5032141;28;51736;-64
2022/01/12 07:42:11;;;;;;;;;44.75;40.00;;;;;-147.17;100.00;50312.53;5032176;28;51154;-64
2022/01/12 07:44:36;;;;;;;;;52.75;43.00;;;;;-147.17;100.00;50324.31;5017976;28;50956;-63
2022/01/12 07:47:02;;;;;;;;;51.50;43.50;;;;;-147.17;100.00;50351.88;5012378;28;51387;-65
2022/01/12 07:49:28;;;;;;;;;48.75;40.25;;;;;-147.17;100.00;50296.78;5011416;28;51645;-63
2022/01/12 07:51:53;;;;;;;;;54.50;43.75;;;;;-147.17;100.00;50318.41;5014850;28;51197;-65
2022/01/12 07:54:18;;;;;;;;;47.75;40.25;;;;;-147.17;100.00;50304.66;5022489;28;51101;-63
2022/01/12 07:56:44;;;;;;;;;48.25;43.25;;;;;-147.17;100.00;50298.75;5031663;28;51155;-63
2022/01/12 07:59:09;;;;;;;;;50.75;44.00;;;;;-147.17;100.00;50296.78;5029662;28;51065;-64
2022/01/12 08:01:34;;;;;;;;;53.50;40.75;;;;;-147.17;100.00;50300.72;5030891;28;50979;-64
2022/01/12 08:04:00;;;;;;;;;50.75;42.25;;;;;-147.17;100.00;50283.00;5023746;28;51236;-63
2022/01/12 08:06:25;;;;;;;;;49.00;41.25;;;;;-147.17;100.00;50312.53;5031204;28;51099;-63
2022/01/12 08:08:50;;;;;;;;;55.00;44.75;;;;;-147.17;100.00;50320.38;5023214;28;52174;-64
2022/01/12 08:11:16;;;;;;;;;53.50;44.75;;;;;-147.17;100.00;50284.97;5021604;28;50867;-63
2022/01/12 08:13:42;;;;;;;;;50.25;38.75;;;;;-147.17;100.00;50310.56;5011716;28;51105;-64
2022/01/12 08:16:08;;;;;;;;;55.00;44.25;;;;;-147.17;100.00;50277.09;5020328;28;51143;-64
2022/01/12 08:18:34;;;;;;;;;49.75;43.50;;;;;-147.17;100.00;50296.78;5024249;28;51030;-63
2022/01/12 08:21:00;;;;;;;;;46.25;39.75;;;;;-147.17;100.00;50308.59;5028896;28;51164;-64
2022/01/12 08:23:26;;;;;;;;;48.00;42.25;;;;;-147.17;100.00;50318.41;5027796;28;51091;-64
2022/01/12 08:25:51;;;;;;;;;57.00;46.00;;;;;-147.17;100.00;50316.44;5017929;28;51022;-63
2022/01/12 08:28:16;;;;;;;;;51.00;43.50;;;;;-147.17;100.00;50288.91;5023431;28;51134;-64
2022/01/12 08:30:42;;;;;;;;;58.50;45.75;;;;;-147.17;100.00;50304.66;5016040;28;51129;-63
2022/01/12 08:33:08;;;;;;;;;49.25;42.50;;;;;-147.17;100.00;50332.19;5013544;28;51313;-63
2022/01/12 08:35:34;;;;;;;;;60.25;48.50;;;;;-147.17;100.00;50300.72;5018432;28;52183;-65
2022/01/12 08:38:00;;;;;;;;;58.75;47.00;;;;;-147.17;100.00;50338.09;5025121;28;50919;-68
2022/01/12 08:40:25;;;;;;;;;59.75;47.25;;;;;-147.17;100.00;50298.75;5017265;28;51157;-66
2022/01/12 08:42:51;;;;;;;;;54.50;45.25;;;;;-147.17;100.00;50302.69;5030407;28;50984;-63
2022/01/12 08:45:17;;;;;;;;;51.75;44.75;;;;;-147.17;100.00;50324.31;5015532;28;51212;-65
2022/01/12 08:47:44;;;;;;;;;51.50;43.50;;;;;-147.17;100.00;50316.44;5021308;28;51278;-65
2022/01/12 08:50:11;;;;;;;;;49.75;44.50;;;;;-147.17;100.00;50351.88;5019486;28;51251;-69
2022/01/12 08:52:36;;;;;;;;;49.00;43.50;;;;;-147.17;100.00;50328.25;5020285;28;51162;-68
2022/01/12 08:55:03;;;;;;;;;56.75;45.50;;;;;-147.17;100.00;50314.47;5023842;28;51183;-69
2022/01/12 08:57:29;;;;;;;;;57.00;45.50;;;;;-147.17;100.00;50314.47;4982250;28;1114035;-68
2022/01/12 08:59:56;;;;;;;;;57.25;43.50;;;;;-147.17;100.00;50324.31;5026782;28;51228;-66
2022/01/12 09:02:22;;;;;;;;;54.00;44.50;;;;;-147.17;100.00;50326.28;5024306;28;50990;-67
2022/01/12 09:04:47;;;;;;;;;62.00;47.50;;;;;-147.17;100.00;50306.63;5025273;28;51072;-67
2022/01/12 09:07:12;;;;;;;;;57.75;45.50;;;;;-147.17;100.00;50308.59;5036613;28;51924;-68
2022/01/12 09:09:38;;;;;;;;;61.50;48.75;;;;;-147.17;100.00;50310.56;5029340;28;51235;-67
2022/01/12 09:12:05;;;;;;;;;56.50;46.50;;;;;-147.17;100.00;50336.13;5027692;28;51345;-66
2022/01/12 09:14:31;;;;;;;;;63.00;46.25;;;;;-147.17;100.00;50338.09;5032589;28;51171;-68
2022/01/12 09:16:58;;;;;;;;;59.50;46.25;;;;;-147.17;100.00;50347.94;5031982;28;51143;-66
2022/01/12 09:19:25;;;;;;;;;59.75;45.25;;;;;-147.17;100.00;50340.06;5038827;28;51145;-66
2022/01/12 09:21:51;;;;;;;;;67.00;50.25;;;;;-147.17;100.00;50340.06;5034663;28;51089;-62
2022/01/12 09:24:16;;;;;;;;;59.00;47.75;;;;;-147.17;100.00;50336.13;5027381;28;51330;-66
2022/01/12 09:26:42;;;;;;;;;64.75;53.00;;;;;-147.17;100.00;50347.94;5025704;28;51723;-66
2022/01/12 09:29:07;;;;;;;;;65.50;52.25;;;;;-147.17;100.00;50345.97;5026351;28;51211;-67
2022/01/12 09:31:33;;;;;;;;;64.75;51.50;;;;;-147.17;100.00;50344.00;5027138;28;51109;-67
2022/01/12 09:33:59;;;;;;;;;70.00;54.25;;;;;-147.17;100.00;50322.34;5020907;28;51149;-66
2022/01/12 09:36:24;;;;;;;;;64.25;52.00;;;;;-147.17;100.00;50355.81;5022661;28;51856;-66
2022/01/12 09:38:50;;;;;;;;;68.50;53.50;;;;;-147.17;100.00;50363.69;5020380;28;51300;-64
2022/01/12 09:41:16;;;;;;;;;66.75;53.75;;;;;-147.17;100.00;50361.72;5029721;28;51132;-67
2022/01/12 09:43:42;;;;;;;;;67.50;52.50;;;;;-147.17;100.00;50387.31;5025689;28;51148;-68
2022/01/12 09:46:09;;;;;;;;;68.25;54.75;;;;;-147.17;100.00;50365.66;5020862;28;52887;-69
2022/01/12 09:48:36;;;;;;;;;71.00;56.00;;;;;-147.17;100.00;50373.53;5020886;28;51357;-68
2022/01/12 09:51:06;;;;;;;;;67.25;52.25;;;;;-147.17;100.00;50336.13;5029593;28;51118;-67
2022/01/12 09:53:33;;;;;;;;;69.00;51.75;;;;;-147.17;100.00;50395.19;5029293;28;51186;-67
2022/01/12 09:55:59;;;;;;;;;66.00;50.50;;;;;-147.17;100.00;50379.44;5026384;28;51837;-65
2022/01/12 09:58:32;;;;;;;;;72.00;56.25;;;;;-147.17;100.00;50403.06;5012925;28;51177;-65
2022/01/12 10:01:00;;;;;;;;;67.00;53.50;;;;;-147.17;100.00;50389.28;5026504;28;51104;-66
2022/01/12 10:03:27;;;;;;;;;66.00;52.50;;;;;-147.17;100.00;50361.72;5023945;28;50963;-65
2022/01/12 10:05:53;;;;;;;;;68.00;54.25;;;;;-147.17;100.00;50385.34;5021954;28;51136;-65
2022/01/12 10:08:19;;;;;;;;;69.50;53.50;;;;;-147.17;100.00;50349.91;5018367;28;51185;-65
2022/01/12 10:11:05;;;;;;;;;70.00;54.00;;;;;-147.17;100.00;50387.31;5018554;28;51284;-65
2022/01/12 10:13:31;;;;;;;;;71.00;52.00;;;;;-147.17;100.00;50375.50;5017799;28;51102;-66
2022/01/12 10:15:57;;;;;;;;;62.50;50.50;;;;;-147.17;100.00;50385.34;5021995;28;51944;-66
2022/01/12 10:18:22;;;;;;;;;72.25;54.00;;;;;-147.17;100.00;50359.75;5016892;28;51534;-65
2022/01/12 10:20:49;;;;;;;;;66.00;51.75;;;;;-147.17;100.00;50393.22;5016998;28;51126;-66
2022/01/12 10:23:15;;;;;;;;;70.50;54.75;;;;;-147.17;100.00;50379.44;5028668;28;51169;-65
2022/01/12 10:25:48;;;;;;;;;70.50;52.25;;;;;-147.17;100.00;50395.19;5020348;28;51097;-66
2022/01/12 10:28:17;;;;;;;;;48.00;39.50;;;;;-147.17;100.00;50395.19;5026251;28;50975;-66
2022/01/12 10:30:51;;;;;;;;;70.00;54.50;;;;;-147.17;100.00;50371.56;5014854;28;50956;-66
2022/01/12 10:33:16;;;;;;;;;63.25;52.25;;;;;-147.17;100.00;50379.44;5018664;28;51198;-66
2022/01/12 10:35:42;;;;;;;;;69.00;54.75;;;;;-147.17;100.00;50401.09;5018820;28;51715;-66
2022/01/12 10:38:15;;;;;;;;;55.00;45.25;;;;;-147.17;100.00;50381.41;5016924;28;51067;-66
2022/01/12 10:40:56;;;;;;;;;64.75;54.50;;;;;-147.17;100.00;50381.41;5018202;28;51000;-66
2022/01/12 10:43:26;;;;;;;;;64.50;51.00;;;;;-147.17;100.00;50405.03;5019603;28;51272;-67
2022/01/12 10:45:51;;;;;;;;;69.00;55.00;;;;;-147.17;100.00;50355.81;5013179;28;51129;-66
2022/01/12 10:48:17;;;;;;;;;60.50;48.00;;;;;-147.17;100.00;50403.06;5027931;28;50872;-65
2022/01/12 10:50:56;;;;;;;;;64.00;52.75;;;;;-147.17;100.00;50393.22;5023010;28;52258;-66
2022/01/12 10:53:31;;;;;;;;;65.00;52.75;;;;;-147.17;100.00;50393.22;5013440;28;50972;-65
2022/01/12 10:56:08;;;;;;;;;65.25;51.75;;;;;-147.17;100.00;50381.41;5024089;28;51668;-65
2022/01/12 10:58:36;;;;;;;;;65.75;52.25;;;;;-147.17;100.00;50387.31;5025628;28;51011;-65
2022/01/12 11:01:02;;;;;;;;;65.25;51.50;;;;;-147.17;100.00;50391.25;5012811;28;50924;-65
2022/01/12 11:03:29;;;;;;;;;66.25;51.75;;;;;-147.17;100.00;50373.53;5013124;28;50885;-66
2022/01/12 11:05:55;;;;;;;;;59.75;49.50;;;;;-147.17;100.00;50426.69;5023942;28;51010;-65
2022/01/12 11:08:24;;;;;;;;;67.00;53.50;;;;;-147.17;100.00;50420.78;5015806;28;51151;-65
2022/01/12 11:10:49;;;;;;;;;70.50;56.75;;;;;-147.17;100.00;50414.88;5012402;28;51138;-65
2022/01/12 11:13:15;;;;;;;;;66.75;53.75;;;;;-147.17;100.00;50399.13;5019481;28;51360;-66
2022/01/12 11:15:41;;;;;;;;;69.00;53.00;;;;;-147.17;100.00;50412.91;5020285;28;51588;-66
2022/01/12 11:18:07;;;;;;;;;71.00;55.25;;;;;-147.17;100.00;50414.88;5032093;28;50942;-67
2022/01/12 11:20:33;;;;;;;;;66.50;52.25;;;;;-147.17;100.00;50403.06;5023092;28;51706;-64
2022/01/12 11:23:12;;;;;;;;;69.50;55.25;;;;;-147.17;100.00;50420.78;5014646;28;51003;-65
2022/01/12 11:25:43;;;;;;;;;72.25;56.00;;;;;-147.17;100.00;50381.41;5011838;28;51695;-67
2022/01/12 11:28:15;;;;;;;;;68.00;52.25;;;;;-147.17;100.00;50408.97;5018564;28;51109;-66
2022/01/12 11:31:01;;;;;;;;;68.25;54.25;;;;;-147.17;100.00;50407.00;5015252;28;51297;-65
2022/01/12 11:33:29;;;;;;;;;68.50;54.00;;;;;-147.17;100.00;50412.91;5013499;28;51064;-66
2022/01/12 11:35:55;;;;;;;;;66.75;53.25;;;;;-147.17;100.00;50412.91;5016729;28;51196;-66
2022/01/12 11:38:25;;;;;;;;;63.75;51.75;;;;;-147.17;100.00;50407.00;5015377;28;51203;-65
2022/01/12 11:40:54;;;;;;;;;66.25;51.50;;;;;-147.17;100.00;50432.59;5012196;28;50988;-66
2022/01/12 11:43:29;;;;;;;;;63.50;52.50;;;;;-147.17;100.00;50418.81;5020199;28;50997;-66
2022/01/12 11:46:07;;;;;;;;;62.50;48.25;;;;;-147.17;100.00;50416.84;5025533;28;51044;-66
2022/01/12 11:48:41;;;;;;;;;71.00;55.50;;;;;-147.17;100.00;50414.88;5024920;28;51220;-66
2022/01/12 11:51:07;;;;;;;;;62.25;50.00;;;;;-147.17;100.00;50420.78;5029218;28;51106;-64
2022/01/12 11:54:06;;;;;;;;;64.75;52.00;;;;;-147.17;100.00;50391.25;5019940;28;51093;-65
2022/01/12 11:56:31;;;;;;;;;65.00;51.50;;;;;-147.17;100.00;50442.44;5026437;28;51162;-65
2022/01/12 11:59:10;;;;;;;;;64.50;52.00;;;;;-147.17;100.00;50426.69;5025994;28;51334;-65
2022/01/12 12:02:14;;;;;;;;;67.50;54.00;;;;;-147.17;100.00;50418.81;5012051;28;51102;-65
2022/01/12 12:04:53;;;;;;;;;58.75;48.50;;;;;-147.17;100.00;50385.34;5015762;28;51011;-64
2022/01/12 12:07:19;;;;;;;;;61.75;50.50;;;;;-147.17;100.00;50414.88;5011363;28;51807;-64
2022/01/12 12:09:53;;;;;;;;;62.75;51.00;;;;;-147.17;100.00;50407.00;5012773;28;51023;-65
2022/01/12 12:12:32;;;;;;;;;63.00;52.50;;;;;-147.17;100.00;50426.69;5029396;28;51166;-66
2022/01/12 12:15:00;;;;;;;;;62.25;51.00;;;;;-147.17;100.00;50395.19;5025850;28;50892;-65
2022/01/12 12:17:31;;;;;;;;;66.00;50.25;;;;;-147.17;100.00;50434.56;5011737;28;51972;-66
2022/01/12 12:19:57;;;;;;;;;63.25;50.50;;;;;-147.17;100.00;50399.13;5019100;28;51110;-65
2022/01/12 12:22:26;;;;;;;;;64.25;48.50;;;;;-147.17;100.00;50438.50;5028138;28;51088;-65